sensor_id;sensor_type;location;lat;lon;timestamp;temperature;humidity
22787;DHT22;63134;52.020;4.714;2023-04-25T00:02:36;7.30;91.40
22787;DHT22;63134;52.020;4.714;2023-04-25T00:05:25;7.20;91.30
22787;DHT22;63134;52.020;4.714;2023-04-25T00:08:13;7.10;91.20
22787;DHT22;63134;52.020;4.714;2023-04-25T00:11:00;7.10;91.00
22787;DHT22;63134;52.020;4.714;2023-04-25T00:13:46;7.00;91.00
22787;DHT22;63134;52.020;4.714;2023-04-25T00:16:32;7.00;91.00
22787;DHT22;63134;52.020;4.714;2023-04-25T00:19:19;6.90;91.00
22787;DHT22;63134;52.020;4.714;2023-04-25T00:22:04;6.90;91.00
22787;DHT22;63134;52.020;4.714;2023-04-25T00:24:50;6.80;91.10
22787;DHT22;63134;52.020;4.714;2023-04-25T00:27:38;6.80;91.10
22787;DHT22;63134;52.020;4.714;2023-04-25T00:30:24;6.80;91.20
22787;DHT22;63134;52.020;4.714;2023-04-25T00:33:10;6.70;91.10
22787;DHT22;63134;52.020;4.714;2023-04-25T00:35:56;6.60;91.10
22787;DHT22;63134;52.020;4.714;2023-04-25T00:38:41;6.60;91.30
22787;DHT22;63134;52.020;4.714;2023-04-25T00:41:27;6.60;91.30
22787;DHT22;63134;52.020;4.714;2023-04-25T00:44:15;6.60;91.40
22787;DHT22;63134;52.020;4.714;2023-04-25T00:47:02;6.60;91.50
22787;DHT22;63134;52.020;4.714;2023-04-25T00:49:47;6.60;91.70
22787;DHT22;63134;52.020;4.714;2023-04-25T00:52:33;6.70;92.00
22787;DHT22;63134;52.020;4.714;2023-04-25T00:55:19;6.70;92.20
22787;DHT22;63134;52.020;4.714;2023-04-25T00:58:05;6.80;92.30
22787;DHT22;63134;52.020;4.714;2023-04-25T01:00:55;6.90;92.30
22787;DHT22;63134;52.020;4.714;2023-04-25T01:03:45;7.00;92.40
22787;DHT22;63134;52.020;4.714;2023-04-25T01:06:32;7.00;92.20
22787;DHT22;63134;52.020;4.714;2023-04-25T01:09:18;7.00;92.10
22787;DHT22;63134;52.020;4.714;2023-04-25T01:12:09;7.00;91.90
22787;DHT22;63134;52.020;4.714;2023-04-25T01:14:55;7.00;91.80
22787;DHT22;63134;52.020;4.714;2023-04-25T01:17:40;6.90;91.50
22787;DHT22;63134;52.020;4.714;2023-04-25T01:20:27;6.80;91.30
22787;DHT22;63134;52.020;4.714;2023-04-25T01:23:14;6.80;91.20
22787;DHT22;63134;52.020;4.714;2023-04-25T01:26:01;6.70;91.10
22787;DHT22;63134;52.020;4.714;2023-04-25T01:28:48;6.60;91.10
22787;DHT22;63134;52.020;4.714;2023-04-25T01:31:34;6.60;91.10
22787;DHT22;63134;52.020;4.714;2023-04-25T01:34:20;6.60;91.20
22787;DHT22;63134;52.020;4.714;2023-04-25T01:37:06;6.50;91.20
22787;DHT22;63134;52.020;4.714;2023-04-25T01:39:52;6.50;91.20
22787;DHT22;63134;52.020;4.714;2023-04-25T01:42:40;6.40;91.30
22787;DHT22;63134;52.020;4.714;2023-04-25T01:45:26;6.40;91.20
22787;DHT22;63134;52.020;4.714;2023-04-25T01:48:13;6.30;91.30
22787;DHT22;63134;52.020;4.714;2023-04-25T01:51:01;6.30;91.30
22787;DHT22;63134;52.020;4.714;2023-04-25T01:53:47;6.20;91.60
22787;DHT22;63134;52.020;4.714;2023-04-25T01:56:37;6.20;91.40
22787;DHT22;63134;52.020;4.714;2023-04-25T01:59:25;6.20;91.50
22787;DHT22;63134;52.020;4.714;2023-04-25T02:02:30;6.20;91.60
22787;DHT22;63134;52.020;4.714;2023-04-25T02:05:17;6.20;91.70
22787;DHT22;63134;52.020;4.714;2023-04-25T02:08:08;6.20;91.80
22787;DHT22;63134;52.020;4.714;2023-04-25T02:10:54;6.30;92.00
22787;DHT22;63134;52.020;4.714;2023-04-25T02:13:42;6.30;92.10
22787;DHT22;63134;52.020;4.714;2023-04-25T02:16:49;6.50;92.30
22787;DHT22;63134;52.020;4.714;2023-04-25T02:19:39;6.60;92.40
22787;DHT22;63134;52.020;4.714;2023-04-25T02:22:25;6.70;92.40
22787;DHT22;63134;52.020;4.714;2023-04-25T02:25:12;6.70;92.30
22787;DHT22;63134;52.020;4.714;2023-04-25T02:27:58;6.80;92.20
22787;DHT22;63134;52.020;4.714;2023-04-25T02:30:44;6.80;92.20
22787;DHT22;63134;52.020;4.714;2023-04-25T02:33:30;6.90;92.10
22787;DHT22;63134;52.020;4.714;2023-04-25T02:36:15;7.00;92.10
22787;DHT22;63134;52.020;4.714;2023-04-25T02:39:01;7.00;92.10
22787;DHT22;63134;52.020;4.714;2023-04-25T02:41:48;7.10;92.00
22787;DHT22;63134;52.020;4.714;2023-04-25T02:44:33;7.20;91.80
22787;DHT22;63134;52.020;4.714;2023-04-25T02:47:19;7.20;91.60
22787;DHT22;63134;52.020;4.714;2023-04-25T02:50:05;7.30;91.50
22787;DHT22;63134;52.020;4.714;2023-04-25T02:52:50;7.30;91.30
22787;DHT22;63134;52.020;4.714;2023-04-25T02:55:42;7.30;91.20
22787;DHT22;63134;52.020;4.714;2023-04-25T02:58:27;7.40;91.00
22787;DHT22;63134;52.020;4.714;2023-04-25T03:01:13;7.40;90.80
22787;DHT22;63134;52.020;4.714;2023-04-25T03:03:58;7.40;90.70
22787;DHT22;63134;52.020;4.714;2023-04-25T03:06:45;7.40;90.50
22787;DHT22;63134;52.020;4.714;2023-04-25T03:09:33;7.40;90.40
22787;DHT22;63134;52.020;4.714;2023-04-25T03:12:21;7.50;90.20
22787;DHT22;63134;52.020;4.714;2023-04-25T03:15:08;7.50;90.10
22787;DHT22;63134;52.020;4.714;2023-04-25T03:17:53;7.50;90.00
22787;DHT22;63134;52.020;4.714;2023-04-25T03:20:39;7.50;90.00
22787;DHT22;63134;52.020;4.714;2023-04-25T03:23:29;7.60;90.00
22787;DHT22;63134;52.020;4.714;2023-04-25T03:26:15;7.60;89.70
22787;DHT22;63134;52.020;4.714;2023-04-25T03:29:01;7.60;89.00
22787;DHT22;63134;52.020;4.714;2023-04-25T03:31:47;7.60;88.90
22787;DHT22;63134;52.020;4.714;2023-04-25T03:34:32;7.60;88.90
22787;DHT22;63134;52.020;4.714;2023-04-25T03:37:18;7.60;88.80
22787;DHT22;63134;52.020;4.714;2023-04-25T03:40:05;7.70;88.90
22787;DHT22;63134;52.020;4.714;2023-04-25T03:43:11;7.70;88.80
22787;DHT22;63134;52.020;4.714;2023-04-25T03:46:00;7.70;88.70
22787;DHT22;63134;52.020;4.714;2023-04-25T03:48:46;7.70;88.70
22787;DHT22;63134;52.020;4.714;2023-04-25T03:51:38;7.70;88.70
22787;DHT22;63134;52.020;4.714;2023-04-25T03:54:26;7.70;88.60
22787;DHT22;63134;52.020;4.714;2023-04-25T03:57:17;7.70;88.60
22787;DHT22;63134;52.020;4.714;2023-04-25T04:00:03;7.70;88.50
22787;DHT22;63134;52.020;4.714;2023-04-25T04:02:57;7.70;88.40
22787;DHT22;63134;52.020;4.714;2023-04-25T04:05:46;7.60;88.30
22787;DHT22;63134;52.020;4.714;2023-04-25T04:08:32;7.60;88.40
22787;DHT22;63134;52.020;4.714;2023-04-25T04:11:17;7.60;88.40
22787;DHT22;63134;52.020;4.714;2023-04-25T04:14:06;7.60;88.20
22787;DHT22;63134;52.020;4.714;2023-04-25T04:16:52;7.60;88.50
22787;DHT22;63134;52.020;4.714;2023-04-25T04:19:38;7.60;88.40
22787;DHT22;63134;52.020;4.714;2023-04-25T04:22:30;7.60;88.50
22787;DHT22;63134;52.020;4.714;2023-04-25T04:25:20;7.60;88.50
22787;DHT22;63134;52.020;4.714;2023-04-25T04:28:25;7.70;88.70
22787;DHT22;63134;52.020;4.714;2023-04-25T04:31:37;7.70;88.70
22787;DHT22;63134;52.020;4.714;2023-04-25T04:34:24;7.70;88.60
22787;DHT22;63134;52.020;4.714;2023-04-25T04:37:10;7.70;88.50
22787;DHT22;63134;52.020;4.714;2023-04-25T04:40:00;7.70;88.50
22787;DHT22;63134;52.020;4.714;2023-04-25T04:43:09;7.70;88.60
22787;DHT22;63134;52.020;4.714;2023-04-25T04:46:08;7.70;87.90
22787;DHT22;63134;52.020;4.714;2023-04-25T04:49:18;7.60;87.50
22787;DHT22;63134;52.020;4.714;2023-04-25T04:52:22;7.50;87.10
22787;DHT22;63134;52.020;4.714;2023-04-25T04:55:21;7.50;87.20
22787;DHT22;63134;52.020;4.714;2023-04-25T04:58:22;7.40;87.20
22787;DHT22;63134;52.020;4.714;2023-04-25T05:01:37;7.30;87.20
22787;DHT22;63134;52.020;4.714;2023-04-25T05:04:41;7.30;87.50
22787;DHT22;63134;52.020;4.714;2023-04-25T05:07:43;7.40;87.70
22787;DHT22;63134;52.020;4.714;2023-04-25T05:10:42;7.40;87.70
22787;DHT22;63134;52.020;4.714;2023-04-25T05:13:41;7.40;87.70
22787;DHT22;63134;52.020;4.714;2023-04-25T05:16:36;7.40;87.60
22787;DHT22;63134;52.020;4.714;2023-04-25T05:19:43;7.40;87.20
22787;DHT22;63134;52.020;4.714;2023-04-25T05:22:36;7.40;87.20
22787;DHT22;63134;52.020;4.714;2023-04-25T05:25:30;7.40;86.80
22787;DHT22;63134;52.020;4.714;2023-04-25T05:28:25;7.30;86.50
22787;DHT22;63134;52.020;4.714;2023-04-25T05:31:21;7.30;86.80
22787;DHT22;63134;52.020;4.714;2023-04-25T05:34:15;7.30;87.20
22787;DHT22;63134;52.020;4.714;2023-04-25T05:37:08;7.50;87.70
22787;DHT22;63134;52.020;4.714;2023-04-25T05:40:06;7.60;88.00
22787;DHT22;63134;52.020;4.714;2023-04-25T05:43:08;7.70;88.10
22787;DHT22;63134;52.020;4.714;2023-04-25T05:46:14;7.80;87.80
22787;DHT22;63134;52.020;4.714;2023-04-25T05:49:23;7.90;87.50
22787;DHT22;63134;52.020;4.714;2023-04-25T05:52:14;7.90;86.80
22787;DHT22;63134;52.020;4.714;2023-04-25T05:55:05;7.90;86.70
22787;DHT22;63134;52.020;4.714;2023-04-25T05:57:51;7.80;86.80
22787;DHT22;63134;52.020;4.714;2023-04-25T06:00:37;7.80;86.90
22787;DHT22;63134;52.020;4.714;2023-04-25T06:03:23;7.80;86.80
22787;DHT22;63134;52.020;4.714;2023-04-25T06:06:10;7.80;87.00
22787;DHT22;63134;52.020;4.714;2023-04-25T06:08:56;7.90;87.20
22787;DHT22;63134;52.020;4.714;2023-04-25T06:11:42;7.90;87.20
22787;DHT22;63134;52.020;4.714;2023-04-25T06:14:28;8.00;88.10
22787;DHT22;63134;52.020;4.714;2023-04-25T06:17:14;8.00;87.00
22787;DHT22;63134;52.020;4.714;2023-04-25T06:20:02;8.00;86.10
22787;DHT22;63134;52.020;4.714;2023-04-25T06:22:51;8.00;86.20
22787;DHT22;63134;52.020;4.714;2023-04-25T06:25:42;8.00;86.50
22787;DHT22;63134;52.020;4.714;2023-04-25T06:28:28;7.90;86.40
22787;DHT22;63134;52.020;4.714;2023-04-25T06:31:15;7.90;86.50
22787;DHT22;63134;52.020;4.714;2023-04-25T06:34:03;7.90;86.60
22787;DHT22;63134;52.020;4.714;2023-04-25T06:36:51;8.00;87.60
22787;DHT22;63134;52.020;4.714;2023-04-25T06:39:39;8.00;87.20
22787;DHT22;63134;52.020;4.714;2023-04-25T06:42:29;8.10;87.70
22787;DHT22;63134;52.020;4.714;2023-04-25T06:45:16;8.10;87.90
22787;DHT22;63134;52.020;4.714;2023-04-25T06:48:02;8.30;88.20
22787;DHT22;63134;52.020;4.714;2023-04-25T06:50:48;8.40;88.50
22787;DHT22;63134;52.020;4.714;2023-04-25T06:53:33;8.40;87.90
22787;DHT22;63134;52.020;4.714;2023-04-25T06:56:21;8.50;87.90
22787;DHT22;63134;52.020;4.714;2023-04-25T06:59:27;8.60;87.80
22787;DHT22;63134;52.020;4.714;2023-04-25T07:02:14;8.80;88.60
22787;DHT22;63134;52.020;4.714;2023-04-25T07:04:59;9.00;88.60
22787;DHT22;63134;52.020;4.714;2023-04-25T07:07:46;9.10;87.90
22787;DHT22;63134;52.020;4.714;2023-04-25T07:10:32;9.30;86.80
22787;DHT22;63134;52.020;4.714;2023-04-25T07:13:18;9.40;86.00
22787;DHT22;63134;52.020;4.714;2023-04-25T07:16:03;9.40;86.10
22787;DHT22;63134;52.020;4.714;2023-04-25T07:18:51;9.60;86.10
22787;DHT22;63134;52.020;4.714;2023-04-25T07:21:37;9.70;85.40
22787;DHT22;63134;52.020;4.714;2023-04-25T07:24:23;9.70;84.60
22787;DHT22;63134;52.020;4.714;2023-04-25T07:27:12;9.70;84.20
22787;DHT22;63134;52.020;4.714;2023-04-25T07:30:08;9.70;83.70
22787;DHT22;63134;52.020;4.714;2023-04-25T07:32:56;9.80;83.30
22787;DHT22;63134;52.020;4.714;2023-04-25T07:35:42;9.90;83.80
22787;DHT22;63134;52.020;4.714;2023-04-25T07:38:32;10.10;83.80
22787;DHT22;63134;52.020;4.714;2023-04-25T07:41:18;10.20;83.20
22787;DHT22;63134;52.020;4.714;2023-04-25T07:44:04;10.30;82.50
22787;DHT22;63134;52.020;4.714;2023-04-25T07:46:51;10.50;82.50
22787;DHT22;63134;52.020;4.714;2023-04-25T07:49:37;10.50;81.90
22787;DHT22;63134;52.020;4.714;2023-04-25T07:52:23;10.60;81.10
22787;DHT22;63134;52.020;4.714;2023-04-25T07:55:17;10.60;80.90
22787;DHT22;63134;52.020;4.714;2023-04-25T07:58:22;10.70;81.30
22787;DHT22;63134;52.020;4.714;2023-04-25T08:01:12;11.00;81.00
22787;DHT22;63134;52.020;4.714;2023-04-25T08:04:07;11.20;80.00
22787;DHT22;63134;52.020;4.714;2023-04-25T08:07:08;11.20;77.30
22787;DHT22;63134;52.020;4.714;2023-04-25T08:10:03;11.20;74.30
22787;DHT22;63134;52.020;4.714;2023-04-25T08:12:51;11.00;72.80
22787;DHT22;63134;52.020;4.714;2023-04-25T08:15:36;10.90;73.00
22787;DHT22;63134;52.020;4.714;2023-04-25T08:18:22;10.80;72.10
22787;DHT22;63134;52.020;4.714;2023-04-25T08:21:09;10.70;71.60
22787;DHT22;63134;52.020;4.714;2023-04-25T08:23:57;10.70;71.10
22787;DHT22;63134;52.020;4.714;2023-04-25T08:26:47;10.70;70.30
22787;DHT22;63134;52.020;4.714;2023-04-25T08:29:35;10.80;70.40
22787;DHT22;63134;52.020;4.714;2023-04-25T08:32:21;11.00;71.40
22787;DHT22;63134;52.020;4.714;2023-04-25T08:35:38;11.40;70.50
22787;DHT22;63134;52.020;4.714;2023-04-25T08:38:24;11.60;67.70
22787;DHT22;63134;52.020;4.714;2023-04-25T08:41:11;11.70;66.30
22787;DHT22;63134;52.020;4.714;2023-04-25T08:43:58;11.70;66.20
22787;DHT22;63134;52.020;4.714;2023-04-25T08:46:47;11.80;64.90
22787;DHT22;63134;52.020;4.714;2023-04-25T08:49:46;11.70;64.50
22787;DHT22;63134;52.020;4.714;2023-04-25T08:52:38;11.60;63.90
22787;DHT22;63134;52.020;4.714;2023-04-25T08:55:26;11.50;62.60
22787;DHT22;63134;52.020;4.714;2023-04-25T08:58:15;11.50;62.10
22787;DHT22;63134;52.020;4.714;2023-04-25T09:01:01;11.60;62.60
22787;DHT22;63134;52.020;4.714;2023-04-25T09:03:51;11.80;61.60
22787;DHT22;63134;52.020;4.714;2023-04-25T09:06:37;12.00;62.30
22787;DHT22;63134;52.020;4.714;2023-04-25T09:09:35;12.00;60.60
22787;DHT22;63134;52.020;4.714;2023-04-25T09:12:24;12.00;58.30
22787;DHT22;63134;52.020;4.714;2023-04-25T09:15:12;11.90;57.70
22787;DHT22;63134;52.020;4.714;2023-04-25T09:18:11;11.60;56.80
22787;DHT22;63134;52.020;4.714;2023-04-25T09:21:09;11.50;56.50
22787;DHT22;63134;52.020;4.714;2023-04-25T09:24:01;11.30;57.40
22787;DHT22;63134;52.020;4.714;2023-04-25T09:26:46;11.30;58.90
22787;DHT22;63134;52.020;4.714;2023-04-25T09:29:35;11.10;63.20
22787;DHT22;63134;52.020;4.714;2023-04-25T09:32:23;10.80;65.50
22787;DHT22;63134;52.020;4.714;2023-04-25T09:35:23;10.50;67.90
22787;DHT22;63134;52.020;4.714;2023-04-25T09:38:15;10.20;69.50
22787;DHT22;63134;52.020;4.714;2023-04-25T09:41:26;10.00;70.40
22787;DHT22;63134;52.020;4.714;2023-04-25T09:44:23;9.70;71.50
22787;DHT22;63134;52.020;4.714;2023-04-25T09:47:14;9.40;72.30
22787;DHT22;63134;52.020;4.714;2023-04-25T09:50:02;9.30;73.60
22787;DHT22;63134;52.020;4.714;2023-04-25T09:53:03;9.30;74.40
22787;DHT22;63134;52.020;4.714;2023-04-25T09:56:11;9.40;74.70
22787;DHT22;63134;52.020;4.714;2023-04-25T09:58:57;9.40;73.10
22787;DHT22;63134;52.020;4.714;2023-04-25T10:01:43;9.40;73.20
22787;DHT22;63134;52.020;4.714;2023-04-25T10:04:42;9.50;71.30
22787;DHT22;63134;52.020;4.714;2023-04-25T10:07:37;9.60;69.90
22787;DHT22;63134;52.020;4.714;2023-04-25T10:10:27;9.70;69.30
22787;DHT22;63134;52.020;4.714;2023-04-25T10:13:16;9.80;68.70
22787;DHT22;63134;52.020;4.714;2023-04-25T10:16:04;10.00;68.30
22787;DHT22;63134;52.020;4.714;2023-04-25T10:18:50;10.00;67.40
22787;DHT22;63134;52.020;4.714;2023-04-25T10:21:40;10.10;67.50
22787;DHT22;63134;52.020;4.714;2023-04-25T10:24:27;10.30;66.70
22787;DHT22;63134;52.020;4.714;2023-04-25T10:27:13;10.50;67.20
22787;DHT22;63134;52.020;4.714;2023-04-25T10:30:07;10.80;67.40
22787;DHT22;63134;52.020;4.714;2023-04-25T10:32:58;11.10;66.40
22787;DHT22;63134;52.020;4.714;2023-04-25T10:35:45;11.40;65.40
22787;DHT22;63134;52.020;4.714;2023-04-25T10:38:31;11.70;64.20
22787;DHT22;63134;52.020;4.714;2023-04-25T10:41:21;12.00;62.70
22787;DHT22;63134;52.020;4.714;2023-04-25T10:44:08;12.40;62.50
22787;DHT22;63134;52.020;4.714;2023-04-25T10:46:58;12.70;60.80
22787;DHT22;63134;52.020;4.714;2023-04-25T10:49:44;13.00;61.20
22787;DHT22;63134;52.020;4.714;2023-04-25T10:52:32;13.00;58.90
22787;DHT22;63134;52.020;4.714;2023-04-25T10:55:20;12.90;56.90
22787;DHT22;63134;52.020;4.714;2023-04-25T10:58:05;13.20;57.50
22787;DHT22;63134;52.020;4.714;2023-04-25T11:00:51;13.40;56.50
22787;DHT22;63134;52.020;4.714;2023-04-25T11:03:43;13.40;54.60
22787;DHT22;63134;52.020;4.714;2023-04-25T11:06:37;13.10;54.10
22787;DHT22;63134;52.020;4.714;2023-04-25T11:09:28;12.80;55.10
22787;DHT22;63134;52.020;4.714;2023-04-25T11:12:13;12.80;54.70
22787;DHT22;63134;52.020;4.714;2023-04-25T11:15:04;13.10;55.70
22787;DHT22;63134;52.020;4.714;2023-04-25T11:17:52;13.70;54.50
22787;DHT22;63134;52.020;4.714;2023-04-25T11:20:43;14.00;52.10
22787;DHT22;63134;52.020;4.714;2023-04-25T11:23:31;13.80;50.80
22787;DHT22;63134;52.020;4.714;2023-04-25T11:26:19;13.70;51.40
22787;DHT22;63134;52.020;4.714;2023-04-25T11:29:04;14.50;51.70
22787;DHT22;63134;52.020;4.714;2023-04-25T11:31:50;15.10;49.40
22787;DHT22;63134;52.020;4.714;2023-04-25T11:34:36;15.40;47.80
22787;DHT22;63134;52.020;4.714;2023-04-25T11:37:21;16.10;48.90
22787;DHT22;63134;52.020;4.714;2023-04-25T11:40:08;17.30;45.60
22787;DHT22;63134;52.020;4.714;2023-04-25T11:42:54;18.40;43.50
22787;DHT22;63134;52.020;4.714;2023-04-25T11:45:46;19.60;42.30
22787;DHT22;63134;52.020;4.714;2023-04-25T11:48:40;20.10;37.90
22787;DHT22;63134;52.020;4.714;2023-04-25T11:51:26;20.20;38.60
22787;DHT22;63134;52.020;4.714;2023-04-25T11:54:12;21.10;38.70
22787;DHT22;63134;52.020;4.714;2023-04-25T11:56:58;22.00;36.30
22787;DHT22;63134;52.020;4.714;2023-04-25T11:59:43;21.70;35.30
22787;DHT22;63134;52.020;4.714;2023-04-25T12:02:29;21.20;35.70
22787;DHT22;63134;52.020;4.714;2023-04-25T12:05:17;21.30;37.40
22787;DHT22;63134;52.020;4.714;2023-04-25T12:08:17;21.90;34.80
22787;DHT22;63134;52.020;4.714;2023-04-25T12:11:02;21.50;34.40
22787;DHT22;63134;52.020;4.714;2023-04-25T12:13:51;22.30;35.10
22787;DHT22;63134;52.020;4.714;2023-04-25T12:16:45;22.70;31.90
22787;DHT22;63134;52.020;4.714;2023-04-25T12:19:35;23.10;31.70
22787;DHT22;63134;52.020;4.714;2023-04-25T12:22:23;22.90;31.30
22787;DHT22;63134;52.020;4.714;2023-04-25T12:25:09;23.50;31.40
22787;DHT22;63134;52.020;4.714;2023-04-25T12:27:54;24.30;30.10
22787;DHT22;63134;52.020;4.714;2023-04-25T12:30:59;25.50;28.40
22787;DHT22;63134;52.020;4.714;2023-04-25T12:33:51;26.50;26.30
22787;DHT22;63134;52.020;4.714;2023-04-25T12:36:37;27.30;25.70
22787;DHT22;63134;52.020;4.714;2023-04-25T12:39:24;28.20;24.90
22787;DHT22;63134;52.020;4.714;2023-04-25T12:42:10;27.70;24.70
22787;DHT22;63134;52.020;4.714;2023-04-25T12:44:58;25.60;26.30
22787;DHT22;63134;52.020;4.714;2023-04-25T12:47:44;23.80;28.20
22787;DHT22;63134;52.020;4.714;2023-04-25T12:50:29;22.30;30.30
22787;DHT22;63134;52.020;4.714;2023-04-25T12:53:17;21.30;31.40
22787;DHT22;63134;52.020;4.714;2023-04-25T12:56:03;21.20;33.30
22787;DHT22;63134;52.020;4.714;2023-04-25T12:58:49;22.30;31.70
22787;DHT22;63134;52.020;4.714;2023-04-25T13:01:34;23.70;30.60
22787;DHT22;63134;52.020;4.714;2023-04-25T13:04:21;24.70;29.20
22787;DHT22;63134;52.020;4.714;2023-04-25T13:07:06;25.80;27.40
22787;DHT22;63134;52.020;4.714;2023-04-25T13:09:53;25.90;27.10
22787;DHT22;63134;52.020;4.714;2023-04-25T13:12:39;24.50;27.80
22787;DHT22;63134;52.020;4.714;2023-04-25T13:15:25;23.80;29.10
22787;DHT22;63134;52.020;4.714;2023-04-25T13:18:10;23.40;28.80
22787;DHT22;63134;52.020;4.714;2023-04-25T13:20:57;24.70;28.40
22787;DHT22;63134;52.020;4.714;2023-04-25T13:23:42;26.20;26.10
22787;DHT22;63134;52.020;4.714;2023-04-25T13:26:29;27.40;25.20
22787;DHT22;63134;52.020;4.714;2023-04-25T13:29:23;28.50;25.10
22787;DHT22;63134;52.020;4.714;2023-04-25T13:32:09;28.10;24.80
22787;DHT22;63134;52.020;4.714;2023-04-25T13:34:55;28.30;25.00
22787;DHT22;63134;52.020;4.714;2023-04-25T13:37:42;26.40;27.20
22787;DHT22;63134;52.020;4.714;2023-04-25T13:40:28;24.10;29.60
22787;DHT22;63134;52.020;4.714;2023-04-25T13:43:22;22.10;32.70
22787;DHT22;63134;52.020;4.714;2023-04-25T13:46:08;20.10;36.80
22787;DHT22;63134;52.020;4.714;2023-04-25T13:49:09;20.70;39.50
22787;DHT22;63134;52.020;4.714;2023-04-25T13:51:57;22.60;36.20
22787;DHT22;63134;52.020;4.714;2023-04-25T13:54:42;23.30;32.60
22787;DHT22;63134;52.020;4.714;2023-04-25T13:57:28;23.30;32.10
22787;DHT22;63134;52.020;4.714;2023-04-25T14:00:13;23.20;32.80
22787;DHT22;63134;52.020;4.714;2023-04-25T14:03:00;22.90;31.20
22787;DHT22;63134;52.020;4.714;2023-04-25T14:05:46;22.50;31.20
22787;DHT22;63134;52.020;4.714;2023-04-25T14:08:32;22.60;32.40
22787;DHT22;63134;52.020;4.714;2023-04-25T14:11:17;23.40;29.90
22787;DHT22;63134;52.020;4.714;2023-04-25T14:14:04;22.60;30.20
22787;DHT22;63134;52.020;4.714;2023-04-25T14:16:49;24.10;30.00
22787;DHT22;63134;52.020;4.714;2023-04-25T14:19:37;23.10;28.90
22787;DHT22;63134;52.020;4.714;2023-04-25T14:22:33;22.20;29.80
22787;DHT22;63134;52.020;4.714;2023-04-25T14:25:20;21.70;30.20
22787;DHT22;63134;52.020;4.714;2023-04-25T14:28:06;21.00;31.00
22787;DHT22;63134;52.020;4.714;2023-04-25T14:30:51;20.20;31.90
22787;DHT22;63134;52.020;4.714;2023-04-25T14:33:37;19.50;33.40
22787;DHT22;63134;52.020;4.714;2023-04-25T14:36:28;20.60;34.80
22787;DHT22;63134;52.020;4.714;2023-04-25T14:39:16;22.90;32.00
22787;DHT22;63134;52.020;4.714;2023-04-25T14:42:02;24.90;28.70
22787;DHT22;63134;52.020;4.714;2023-04-25T14:44:48;27.00;26.80
22787;DHT22;63134;52.020;4.714;2023-04-25T14:47:37;28.80;25.40
22787;DHT22;63134;52.020;4.714;2023-04-25T14:50:22;30.30;23.90
22787;DHT22;63134;52.020;4.714;2023-04-25T14:53:08;30.00;22.30
22787;DHT22;63134;52.020;4.714;2023-04-25T14:55:53;28.50;22.50
22787;DHT22;63134;52.020;4.714;2023-04-25T14:58:39;29.10;23.60
22787;DHT22;63134;52.020;4.714;2023-04-25T15:01:25;30.20;22.60
22787;DHT22;63134;52.020;4.714;2023-04-25T15:04:10;30.00;22.70
22787;DHT22;63134;52.020;4.714;2023-04-25T15:07:02;30.90;22.80
22787;DHT22;63134;52.020;4.714;2023-04-25T15:09:48;31.70;22.50
22787;DHT22;63134;52.020;4.714;2023-04-25T15:12:34;31.40;21.20
22787;DHT22;63134;52.020;4.714;2023-04-25T15:15:19;31.20;20.40
22787;DHT22;63134;52.020;4.714;2023-04-25T15:18:11;30.90;20.60
22787;DHT22;63134;52.020;4.714;2023-04-25T15:20:56;31.10;20.50
22787;DHT22;63134;52.020;4.714;2023-04-25T15:23:41;28.80;21.60
22787;DHT22;63134;52.020;4.714;2023-04-25T15:26:27;26.80;23.70
22787;DHT22;63134;52.020;4.714;2023-04-25T15:29:12;26.10;26.00
22787;DHT22;63134;52.020;4.714;2023-04-25T15:31:58;27.90;25.30
22787;DHT22;63134;52.020;4.714;2023-04-25T15:34:43;29.60;23.90
22787;DHT22;63134;52.020;4.714;2023-04-25T15:37:29;30.50;22.60
22787;DHT22;63134;52.020;4.714;2023-04-25T15:40:16;31.30;22.30
22787;DHT22;63134;52.020;4.714;2023-04-25T15:43:01;31.90;21.50
22787;DHT22;63134;52.020;4.714;2023-04-25T15:45:50;31.70;21.00
22787;DHT22;63134;52.020;4.714;2023-04-25T15:48:35;31.80;21.40
22787;DHT22;63134;52.020;4.714;2023-04-25T15:51:20;31.60;20.60
22787;DHT22;63134;52.020;4.714;2023-04-25T15:54:06;31.70;20.80
22787;DHT22;63134;52.020;4.714;2023-04-25T15:56:52;31.90;20.40
22787;DHT22;63134;52.020;4.714;2023-04-25T15:59:37;31.10;20.30
22787;DHT22;63134;52.020;4.714;2023-04-25T16:02:23;29.60;21.80
22787;DHT22;63134;52.020;4.714;2023-04-25T16:05:09;30.00;21.80
22787;DHT22;63134;52.020;4.714;2023-04-25T16:07:58;30.90;20.40
22787;DHT22;63134;52.020;4.714;2023-04-25T16:10:47;31.50;20.20
22787;DHT22;63134;52.020;4.714;2023-04-25T16:13:36;31.90;19.80
22787;DHT22;63134;52.020;4.714;2023-04-25T16:16:21;31.30;19.80
22787;DHT22;63134;52.020;4.714;2023-04-25T16:19:07;30.60;20.30
22787;DHT22;63134;52.020;4.714;2023-04-25T16:21:52;31.10;21.00
22787;DHT22;63134;52.020;4.714;2023-04-25T16:24:38;29.10;21.30
22787;DHT22;63134;52.020;4.714;2023-04-25T16:27:24;26.60;23.50
22787;DHT22;63134;52.020;4.714;2023-04-25T16:30:10;24.70;25.70
22787;DHT22;63134;52.020;4.714;2023-04-25T16:33:05;24.50;27.50
22787;DHT22;63134;52.020;4.714;2023-04-25T16:35:50;25.80;25.30
22787;DHT22;63134;52.020;4.714;2023-04-25T16:38:37;24.00;25.80
22787;DHT22;63134;52.020;4.714;2023-04-25T16:41:24;22.40;27.80
22787;DHT22;63134;52.020;4.714;2023-04-25T16:44:09;20.90;29.40
22787;DHT22;63134;52.020;4.714;2023-04-25T16:46:55;19.90;31.10
22787;DHT22;63134;52.020;4.714;2023-04-25T16:49:41;19.30;32.50
22787;DHT22;63134;52.020;4.714;2023-04-25T16:52:26;19.20;33.20
22787;DHT22;63134;52.020;4.714;2023-04-25T16:55:12;18.70;32.80
22787;DHT22;63134;52.020;4.714;2023-04-25T16:57:57;18.00;33.20
22787;DHT22;63134;52.020;4.714;2023-04-25T17:00:43;17.60;34.10
22787;DHT22;63134;52.020;4.714;2023-04-25T17:03:28;17.20;35.40
22787;DHT22;63134;52.020;4.714;2023-04-25T17:06:19;16.90;37.30
22787;DHT22;63134;52.020;4.714;2023-04-25T17:09:07;16.30;38.40
22787;DHT22;63134;52.020;4.714;2023-04-25T17:11:53;15.80;38.90
22787;DHT22;63134;52.020;4.714;2023-04-25T17:14:38;16.10;39.90
22787;DHT22;63134;52.020;4.714;2023-04-25T17:17:24;17.30;38.50
22787;DHT22;63134;52.020;4.714;2023-04-25T17:20:11;16.70;38.00
22787;DHT22;63134;52.020;4.714;2023-04-25T17:22:57;16.00;39.10
22787;DHT22;63134;52.020;4.714;2023-04-25T17:25:43;15.40;40.70
22787;DHT22;63134;52.020;4.714;2023-04-25T17:28:29;14.80;42.40
22787;DHT22;63134;52.020;4.714;2023-04-25T17:31:15;14.40;43.60
22787;DHT22;63134;52.020;4.714;2023-04-25T17:34:01;14.80;44.80
22787;DHT22;63134;52.020;4.714;2023-04-25T17:36:51;16.30;43.90
22787;DHT22;63134;52.020;4.714;2023-04-25T17:39:36;17.30;41.60
22787;DHT22;63134;52.020;4.714;2023-04-25T17:42:22;18.60;39.00
22787;DHT22;63134;52.020;4.714;2023-04-25T17:45:08;19.00;37.10
22787;DHT22;63134;52.020;4.714;2023-04-25T17:47:53;19.30;36.50
22787;DHT22;63134;52.020;4.714;2023-04-25T17:50:39;19.60;36.10
22787;DHT22;63134;52.020;4.714;2023-04-25T17:53:24;19.80;35.40
22787;DHT22;63134;52.020;4.714;2023-04-25T17:56:10;19.90;35.10